Ashford, AL

10:33 AM CDT on July 31, 2014 (GMT -0500)
South Dothan (KALDOTHA9) Elev 305 ft | 31.18 °N, 85.37 °W | Change Station

Current weather conditions updated 7 minutes ago

Clear
Clear
84.9 °F
Feels Like 86 °F
N
4.2
Wind Variable Wind from South

Today is forecast to be nearly the same temperature as yesterday.

Today
High -- | Low -- °F
--% Chance of Precip.
Yesterday
High -- | Low -- °F
Precip. -- in
5:57 AM 7:37 PM
Waxing Crescent, 19% visible
Pressure 30.06 in
Visibility 10.0 miles
Clouds Clear
Heat Index 86 °F
Dew Point 64 °F
Humidity 49%
Rainfall 0.00 in
Snow Depth Not available.
UV 8 out of 12
Pollen 5.60 out of 12
Air Quality Not available.
Flu Activity Not available.
METAR KDHN 311453Z 00000KT 10SM CLR 25/18 A3008 RMK AO2 SLP179 T02500183 51009 $

More Conditions Fewer Conditions

Pressure 30.06 in
Visibility 10.0 miles
Clouds Clear
Heat Index 86 °F
Dew Point 64 °F
Humidity 49%
Rainfall 0.00 in
Snow Depth Not available.
UV 8 out of 12
Pollen 5.60 out of 12
Air Quality Not available.
Flu Activity Not available.
METAR KDHN 311453Z 00000KT 10SM CLR 25/18 A3008 RMK AO2 SLP179 T02500183 51009 $

More Conditions Fewer Conditions

10-Day Weather Forecast

Almanac

Astronomy

Jul. 31, 2014 Rise Set
Actual Time 5:57 AM CDT 7:37 PM CDT
Civil Twilight 5:30 AM CDT 8:03 PM CDT
Nautical Twilight 4:59 AM CDT 8:35 PM CDT
Astronomical Twilight 4:25 AM CDT 9:08 PM CDT
Moon 10:03 AM CDT 10:11 PM CDT
Length of Visible Light 14h 32m
Length of Day
13h 39m
Tomorrow will be 1m 23s shorter.
Waxing Crescent, 19% of the Moon is Illuminated
Today
Waxing Crescent
Aug 3
First Quarter
Aug 10
Full
Aug 17
Last Quarter
Aug 25
New

Today's Extremes

State Highs State Lows

Community

WunderPhotos

Upload Photos

1,739,357 photos uploaded!

Nearby

Snow Depth

Station Depth Elevation
No new snow has been reported.

Earthquake Activity

City Distance Mag. Time & Date
No recent earthquake activity has been reported nearby.
Minimum magnitude displayed is 2.5.

Coastal Water Temperatures

Place Temperature
No Stations Reporting

Nearby Weather Stations

Station Location Temp. Heat Index Dew Point Humidity Wind Precip. Elev Updated Type
South Dothan, Dothan, AL 84.9 °F 86 °F 64 °F 49% South  at  4.2 mph - / hr 305 ft 10:25 AM CDT Normal
Dothan, AL 84.8 °F 88 °F 67 °F 56% East  at  0.0 mph 0.00 in / hr 300 ft 10:33 AM CDT Rapid Fire

Show More Stations Show Fewer Stations